Historyczne dane pomiarowe

Dodano dane terminowe – wersja testowa.

Dane z okresu 1951-2019

Wersja bazy: 1.34 [2019-03-16, lista zmian], aktualizacja planowana na 2019-04-15

Dane meteo z obszaru Polski uzyskane na podstawie danych udostępnionych przez Instytut Meteorologii i Gospodarki Wodnej – Państwowy Instytut Badawczy.

 

Wybierz Datę:    

       

TemperaturaWilgotnośćWiatrCiśnienieOpadyŚniegCzas trwania zjawisk
 Stacja t tx tn tng RH VA  wxwx mslp ppp RRR   cm mm wxwxwxwxwxwxwx
1999-08-14 17.1 19.1 15.5 12.3 86.8- 5.3 2.7---- 12.8------------
1999-08-13 15.6 18.1 13.2 11.6 88.8- 7.0 6.3---- 24.2------------
1999-08-12 17.3 23.4 12.3 10.7 82.3- 5.0 2.7---- 0.0------------
1999-08-11 18.2 22.7 14.7 13.3 96.3- 7.7 3.7---- 10.1------------
1999-08-10 19.4 25.9 15.8 13.5 91.5- 7.0 2.7---- 7.1------------
1999-08-09 22.4 29.3 18.1 15.8 78.0- 4.3 3.3---- 6.0------------
1999-08-08 19.5 23.3 17.0 16.6 91.5- 7.0 2.7---- 10.8------------
1999-08-07 20.3 26.1 14.7 11.4 81.3- 4.3 3.7---- 2.0------------
1999-08-06 20.8 27.1 14.0 10.2 65.3- 6.0 3.7---- 0.0------------
1999-08-05 19.9 26.4 13.2 9.6 78.3- 2.0 2.7---- 0.0------------
1999-08-04 19.6 24.1 13.8 13.3 85.0- 1.7 2.7---- 0.0------------
1999-08-03 21.1 24.6 17.7 13.0 75.5- 3.3 3.7---- 0.0------------
1999-08-02 20.6 23.2 17.5 13.1 67.5- 0.0 4.0---- 0.0------------
1999-08-01 20.4 23.6 16.4 11.7 70.3- 2.7 5.0---- 0.0------------
1999-07-31 21.2 23.8 18.6 14.7 84.8- 1.3 4.3---- 0.0------------
1999-07-30 20.6 23.0 17.2 15.1 87.5- 1.0 4.3---- 0.0------------
1999-07-29 20.4 23.2 18.0 14.9 86.8- 0.7 4.0---- 0.0------------
1999-07-28 19.5 21.1 18.1 14.8 84.3- 1.0 4.7---- 0.0------------
1999-07-27 16.3 20.0 10.3 7.2 86.8- 1.3 4.0---- 0.0------------
1999-07-26 17.7 21.0 16.2 12.2 91.0- 6.7 3.0---- 0.1------------
1999-07-25 20.0 24.7 16.3 15.1 87.8- 5.7 3.3---- 9.8------------
1999-07-24 18.2 23.1 12.5 8.4 84.5- 6.0 3.7---- 0.0------------
1999-07-23 17.7 23.2 12.9 10.5 83.3- 5.3 2.0---- 0.1------------
1999-07-22 19.0 23.3 15.9 14.6 79.3- 4.7 4.7---- 0.0------------
1999-07-21 22.1 28.8 17.9 16.8 89.5- 4.0 3.3---- 5.9------------
1999-07-20 22.1 31.1 13.9 10.5 75.5- 3.3 3.3---- 4.9------------
1999-07-19 20.0 22.5 16.3 13.5 76.3- 4.3 2.7---- 0.0------------
1999-07-18 19.9 27.1 14.9 11.7 76.5- 4.7 3.0---- 0.0------------
1999-07-17 16.8 22.0 12.2 8.4 80.5- 5.7 2.7---- 5.9------------
1999-07-16 17.3 21.5 11.9 8.2 74.3- 4.3 3.3---- 0.3------------
1999-07-15 18.0 20.8 16.3 15.7 82.8- 6.3 4.7---- 0.3------------
1999-07-14 21.2 28.1 18.1 17.0 82.8- 6.7 4.7---- 12.6------------
1999-07-13 23.8 29.6 18.5 15.2 67.3- 5.3 4.0---- 0.0------------
1999-07-12 22.9 28.9 16.1 10.8 67.5- 4.3 2.7---- 0.0------------
1999-07-11 22.2 26.5 18.2 14.3 72.0- 0.0 3.0---- 0.0------------
1999-07-10 19.9 22.1 16.9 14.2 75.5- 0.0 5.3---- 0.0------------
1999-07-09 18.2 19.6 17.0 15.2 79.0- 2.0 8.7---- 0.0------------
1999-07-08 18.9 20.4 17.6 16.0 85.0- 7.0 5.7---- 0.0------------
1999-07-07 18.0 20.8 15.8 14.6 86.3- 6.7 3.0---- 0.0------------
1999-07-06 22.5 27.1 19.5 16.8 79.0- 4.7 4.0---- 0.6------------
1999-07-05 23.8 31.2 16.8 13.7 83.3- 2.7 4.0---- 0.0------------
1999-07-04 21.7 29.5 16.3 13.0 81.0- 6.0 3.0---- 0.0------------
1999-07-03 18.3 23.7 13.0 10.6 84.3- 4.3 2.0---- 0.2------------
1999-07-02 17.1 20.5 14.4 11.9 83.8- 5.0 2.0---- 0.1------------
1999-07-01 19.7 25.3 15.6 13.2 87.0- 6.3 3.0---- 20.8------------
1999-06-30 19.8 25.5 13.3 9.7 73.3- 3.3 2.7---- 0.0------------
1999-06-29 18.6 24.0 15.2 13.2 78.5- 4.0 3.0---- 0.0------------
1999-06-28 22.2 28.4 14.8 9.7 68.8- 3.7 4.7---- 6.9------------
1999-06-27 19.9 26.6 11.9 7.5 71.0- 4.3 6.7---- 0.0------------
1999-06-26 14.4 19.6 8.9 4.9 80.3- 4.7 4.0---- 0.0------------
1999-06-25 13.7 16.4 9.8 6.7 77.3- 6.3 2.3---- 0.0------------
1999-06-24 13.2 17.0 9.3 5.5 88.8- 6.7 2.7---- 0.0------------
1999-06-23 12.9 15.4 11.2 10.0 91.5- 7.3 4.7---- 0.8------------
1999-06-22 14.0 15.3 12.8 12.7 81.0- 7.7 6.3---- 6.8------------
1999-06-21 17.7 21.7 14.5 14.7 77.8- 5.7 3.3---- 2.3------------
1999-06-20 18.8 24.6 14.7 11.8 76.5- 4.7 2.7---- 0.0------------
1999-06-19 18.7 22.7 16.6 15.3 91.5- 6.3 3.7---- 0.2------------
1999-06-18 17.4 20.6 12.5 8.4 79.5- 4.0 2.7---- 0.0------------
1999-06-17 17.3 21.2 13.8 10.3 79.3- 3.7 2.7---- 0.0------------
1999-06-16 16.6 19.6 14.3 13.9 84.5- 5.7 2.3---- 0.0------------
255.5 ms

 

Źródłem pochodzenia danych jest Instytut Meteorologii i Gospodarki Wodnej – Państwowy Instytut Badawczy. Dane Instytutu Meteorologii i Gospodarki Wodnej – Państwowego Instytutu Badawczego zostały przetworzone.

Dane źródłowe można odnaleźć na stronie https://dane.imgw.pl